Ionia, Missouri
Current Conditions -  °F | °C
As of 6:53 PM on Wednesday 22 Oct 2014 (Local Time) from KDMO Reporting Station
Clear Clear  
Wind Chill: 60°   Ceiling: Unl
Heat Index: 60°   Visibility: 10mi
Dew Point: 47°   Wind: 7mph
Humidity: 62%   Direction: 120°ESE
Pressure: 30.17"   Gusts: NA
Location:  38.5°N, 93.32°W
Report Text: KDMO 222353Z AUTO 12006KT 10SM CLR 16/08 A3017 RMK AO2 SLP216 T01560083 10217 20156 53003
Loading
Personal Weather Stations






























Interactive Weather Map
Tropical Storm Tracking
New forecast layout! Learn more

10-Day Weather Forecast

Advertisements
Track Severe Weather on mobile